首页
METAR-TAF:

METAR-TAF

机场 :

伊基托斯, 秘鲁

纬度: 03-45S, 经度: 073-15W, 海拔: 125米

当前天气观测

该预报发布于4小时和11分钟前的00:00 UTC
风速1节,风向北转东北
温度 28°C
湿度 84%
气压 1008 hPa
能见度10公里或以上
1500米以下无云,无积雨云

METAR: SPQT 120000Z 03001KT CAVOK 28/25 Q1008 NOSIG RMK PP000

时间: 23:11 (04:11 UTC)

预报

该预报发布于11小时和11分钟前的17:00 UTC
预报有效从11日的 18点(UTC)到 12日的 18点(UTC)
风速5节,风向
能见度10公里或以上
散云层高于2000英尺
成为
从 11日的 21点(UTC)到 12日的 01点(UTC)
风速节,风向
能见度10公里或以上
1500米以下无云,无积雨云
短暂存在
从 12日的 08点(UTC)到 12日的 12点(UTC)
能見度: 4000
成为
从 12日的 13点(UTC)到 12日的 16点(UTC)
散云层高于2000英尺

TAF: SPQT 111700Z 1118/1218 36005KT 9999 SCT020 TX33/1120Z TN23/1211Z BECMG 1121/1201 00000KT CAVOK TEMPO 1208/1212 4000 NSC BECMG 1213/1216 SCT020

超过4000个机场的气象观测和天气预报(METAR&TAF报告)。

可查询的气象台以黄色和红色小点在地图上表示。

将鼠标移到小点上方,可查看气象台名称。

然后点击查看天气观测和预报。

如需切换地图:点击带黑十字的绿色按钮放大地图;点击带横线的绿色按钮缩小地图;或者点击绿色箭头查看邻近地区的地图。


METAR-TAF: